Lokbatan, Azerbaijan
Current Conditions -  °F | °C
As of 6:00 PM on Friday 31 Oct 2014 (Local Time) from UBBB Reporting Station
Broken Clouds Broken Clouds  
Wind Chill: 59°   Ceiling: 2300
Heat Index: 59°   Visibility: 6mi
Dew Point: 50°   Wind: 10mph
Humidity: 72%   Direction: 160°SSE
Pressure: 29.97"   Gusts: NA
Location:  40.33°N, 49.73°E
Report Text: UBBB 311300Z 16009KT 9999 BKN023 15/10 Q1015 88CLRD70NOSIG
Loading
Personal Weather Stations






























Interactive Weather Map
Tropical Storm Tracking
New forecast layout! Learn more

10-Day Weather Forecast

Advertisements
Track Severe Weather on mobile